sensor_id;sensor_type;location;lat;lon;timestamp;P1;durP1;ratioP1;P2;durP2;ratioP2
23187;SDS011;11762;59.878;17.686;2023-03-23T02:33:50;36.13;;;5.20;;
23187;SDS011;11762;59.878;17.686;2023-03-23T02:36:23;34.17;;;4.53;;
23187;SDS011;11762;59.878;17.686;2023-03-23T02:38:56;31.87;;;4.80;;
23187;SDS011;11762;59.878;17.686;2023-03-23T02:41:28;26.47;;;4.53;;
23187;SDS011;11762;59.878;17.686;2023-03-23T02:43:58;32.17;;;5.60;;
23187;SDS011;11762;59.878;17.686;2023-03-23T02:46:28;36.17;;;4.20;;
23187;SDS011;11762;59.878;17.686;2023-03-23T02:48:58;27.20;;;4.60;;
23187;SDS011;11762;59.878;17.686;2023-03-23T02:51:26;36.03;;;5.37;;
23187;SDS011;11762;59.878;17.686;2023-03-23T02:53:55;36.27;;;4.57;;
23187;SDS011;11762;59.878;17.686;2023-03-23T02:56:22;29.73;;;4.00;;
23187;SDS011;11762;59.878;17.686;2023-03-23T02:58:53;23.10;;;3.97;;
23187;SDS011;11762;59.878;17.686;2023-03-23T03:04:19;23.93;;;4.50;;
23187;SDS011;11762;59.878;17.686;2023-03-23T03:06:53;31.17;;;4.37;;
23187;SDS011;11762;59.878;17.686;2023-03-23T03:09:50;30.47;;;3.70;;
23187;SDS011;11762;59.878;17.686;2023-03-23T03:12:22;29.63;;;4.13;;
23187;SDS011;11762;59.878;17.686;2023-03-23T03:14:57;23.80;;;3.93;;
23187;SDS011;11762;59.878;17.686;2023-03-23T03:17:32;33.00;;;4.67;;
23187;SDS011;11762;59.878;17.686;2023-03-23T03:20:06;32.90;;;4.00;;
23187;SDS011;11762;59.878;17.686;2023-03-23T03:22:36;28.00;;;3.70;;
23187;SDS011;11762;59.878;17.686;2023-03-23T03:25:07;22.20;;;3.57;;
23187;SDS011;11762;59.878;17.686;2023-03-23T03:27:37;21.50;;;3.03;;
23187;SDS011;11762;59.878;17.686;2023-03-23T03:30:08;33.33;;;3.80;;
23187;SDS011;11762;59.878;17.686;2023-03-23T03:32:40;29.23;;;4.07;;
23187;SDS011;11762;59.878;17.686;2023-03-23T03:35:13;29.63;;;4.83;;
23187;SDS011;11762;59.878;17.686;2023-03-23T03:37:41;21.93;;;3.27;;
23187;SDS011;11762;59.878;17.686;2023-03-23T03:40:09;28.03;;;3.50;;
23187;SDS011;11762;59.878;17.686;2023-03-23T03:42:38;35.13;;;4.70;;
23187;SDS011;11762;59.878;17.686;2023-03-23T03:45:06;30.20;;;3.87;;
23187;SDS011;11762;59.878;17.686;2023-03-23T03:47:34;17.97;;;2.83;;
23187;SDS011;11762;59.878;17.686;2023-03-23T03:50:01;27.33;;;3.70;;
23187;SDS011;11762;59.878;17.686;2023-03-23T03:52:30;25.83;;;3.57;;
23187;SDS011;11762;59.878;17.686;2023-03-23T03:54:58;25.07;;;3.73;;
23187;SDS011;11762;59.878;17.686;2023-03-23T03:57:25;26.87;;;4.00;;
23187;SDS011;11762;59.878;17.686;2023-03-23T03:59:52;26.63;;;3.83;;
23187;SDS011;11762;59.878;17.686;2023-03-23T04:02:19;25.27;;;3.90;;
23187;SDS011;11762;59.878;17.686;2023-03-23T04:04:47;29.97;;;4.70;;
23187;SDS011;11762;59.878;17.686;2023-03-23T04:07:14;25.30;;;3.70;;
23187;SDS011;11762;59.878;17.686;2023-03-23T04:09:44;29.67;;;4.33;;
23187;SDS011;11762;59.878;17.686;2023-03-23T04:12:12;31.07;;;3.87;;
23187;SDS011;11762;59.878;17.686;2023-03-23T04:14:40;40.73;;;6.27;;
23187;SDS011;11762;59.878;17.686;2023-03-23T04:17:07;28.57;;;4.03;;
23187;SDS011;11762;59.878;17.686;2023-03-23T04:19:36;24.53;;;3.17;;
23187;SDS011;11762;59.878;17.686;2023-03-23T04:22:03;26.73;;;5.93;;
23187;SDS011;11762;59.878;17.686;2023-03-23T04:24:31;34.10;;;3.67;;
23187;SDS011;11762;59.878;17.686;2023-03-23T04:27:00;30.57;;;4.20;;
23187;SDS011;11762;59.878;17.686;2023-03-23T04:29:27;35.50;;;4.20;;
23187;SDS011;11762;59.878;17.686;2023-03-23T04:31:55;31.73;;;4.27;;
23187;SDS011;11762;59.878;17.686;2023-03-23T04:34:22;29.73;;;3.60;;
23187;SDS011;11762;59.878;17.686;2023-03-23T04:36:49;32.00;;;5.33;;
23187;SDS011;11762;59.878;17.686;2023-03-23T04:39:16;30.73;;;3.73;;
23187;SDS011;11762;59.878;17.686;2023-03-23T04:41:44;29.73;;;4.00;;
23187;SDS011;11762;59.878;17.686;2023-03-23T04:44:13;30.43;;;4.10;;
23187;SDS011;11762;59.878;17.686;2023-03-23T04:46:42;35.57;;;4.60;;
23187;SDS011;11762;59.878;17.686;2023-03-23T04:49:14;27.87;;;4.30;;
23187;SDS011;11762;59.878;17.686;2023-03-23T04:51:46;38.27;;;4.90;;
23187;SDS011;11762;59.878;17.686;2023-03-23T04:54:15;23.27;;;3.97;;
23187;SDS011;11762;59.878;17.686;2023-03-23T04:56:43;25.67;;;3.90;;
23187;SDS011;11762;59.878;17.686;2023-03-23T04:59:09;32.70;;;4.30;;
23187;SDS011;11762;59.878;17.686;2023-03-23T05:01:39;31.23;;;4.40;;
23187;SDS011;11762;59.878;17.686;2023-03-23T05:04:10;22.03;;;4.20;;
23187;SDS011;11762;59.878;17.686;2023-03-23T05:06:41;33.60;;;4.37;;
23187;SDS011;11762;59.878;17.686;2023-03-23T05:09:10;23.17;;;4.27;;
23187;SDS011;11762;59.878;17.686;2023-03-23T05:11:38;24.47;;;4.53;;
23187;SDS011;11762;59.878;17.686;2023-03-23T05:14:05;30.40;;;4.50;;
23187;SDS011;11762;59.878;17.686;2023-03-23T05:16:32;28.60;;;4.67;;
23187;SDS011;11762;59.878;17.686;2023-03-23T05:19:03;23.50;;;3.53;;
23187;SDS011;11762;59.878;17.686;2023-03-23T05:21:30;25.80;;;4.03;;
23187;SDS011;11762;59.878;17.686;2023-03-23T05:23:57;26.33;;;3.87;;
23187;SDS011;11762;59.878;17.686;2023-03-23T05:26:26;36.60;;;4.77;;
23187;SDS011;11762;59.878;17.686;2023-03-23T05:28:55;28.50;;;4.00;;
23187;SDS011;11762;59.878;17.686;2023-03-23T05:31:22;25.97;;;4.00;;
23187;SDS011;11762;59.878;17.686;2023-03-23T05:33:50;23.93;;;3.80;;
23187;SDS011;11762;59.878;17.686;2023-03-23T05:36:18;23.23;;;4.77;;
23187;SDS011;11762;59.878;17.686;2023-03-23T05:38:45;27.70;;;3.67;;
23187;SDS011;11762;59.878;17.686;2023-03-23T05:41:12;25.40;;;3.83;;
23187;SDS011;11762;59.878;17.686;2023-03-23T05:43:40;24.20;;;4.23;;
23187;SDS011;11762;59.878;17.686;2023-03-23T05:46:07;27.77;;;3.90;;
23187;SDS011;11762;59.878;17.686;2023-03-23T05:48:34;32.30;;;4.53;;
23187;SDS011;11762;59.878;17.686;2023-03-23T05:51:01;16.10;;;3.27;;
23187;SDS011;11762;59.878;17.686;2023-03-23T05:53:30;28.13;;;3.57;;
23187;SDS011;11762;59.878;17.686;2023-03-23T05:56:00;30.13;;;4.27;;
23187;SDS011;11762;59.878;17.686;2023-03-23T05:58:28;28.07;;;3.80;;
23187;SDS011;11762;59.878;17.686;2023-03-23T06:00:56;21.33;;;3.50;;
23187;SDS011;11762;59.878;17.686;2023-03-23T06:03:23;21.57;;;4.53;;
23187;SDS011;11762;59.878;17.686;2023-03-23T06:05:50;24.33;;;3.70;;
23187;SDS011;11762;59.878;17.686;2023-03-23T06:08:17;34.70;;;7.70;;
23187;SDS011;11762;59.878;17.686;2023-03-23T06:10:46;24.33;;;4.03;;
23187;SDS011;11762;59.878;17.686;2023-03-23T06:13:13;28.80;;;3.87;;
23187;SDS011;11762;59.878;17.686;2023-03-23T06:15:40;25.73;;;4.23;;
23187;SDS011;11762;59.878;17.686;2023-03-23T06:18:07;18.50;;;3.50;;
23187;SDS011;11762;59.878;17.686;2023-03-23T06:20:35;22.00;;;3.93;;
23187;SDS011;11762;59.878;17.686;2023-03-23T06:23:02;25.50;;;3.80;;
23187;SDS011;11762;59.878;17.686;2023-03-23T06:25:29;25.30;;;3.90;;
23187;SDS011;11762;59.878;17.686;2023-03-23T06:27:58;23.13;;;4.13;;
23187;SDS011;11762;59.878;17.686;2023-03-23T06:30:25;33.27;;;4.23;;
23187;SDS011;11762;59.878;17.686;2023-03-23T06:32:54;25.37;;;4.17;;
23187;SDS011;11762;59.878;17.686;2023-03-23T06:35:21;23.83;;;4.00;;
23187;SDS011;11762;59.878;17.686;2023-03-23T06:37:48;23.70;;;3.70;;
23187;SDS011;11762;59.878;17.686;2023-03-23T06:40:17;27.10;;;4.50;;
23187;SDS011;11762;59.878;17.686;2023-03-23T06:42:46;25.53;;;4.10;;
23187;SDS011;11762;59.878;17.686;2023-03-23T06:45:15;20.87;;;3.63;;
23187;SDS011;11762;59.878;17.686;2023-03-23T06:47:44;28.47;;;3.80;;
23187;SDS011;11762;59.878;17.686;2023-03-23T06:50:13;22.73;;;5.47;;
23187;SDS011;11762;59.878;17.686;2023-03-23T06:52:44;21.67;;;3.73;;
23187;SDS011;11762;59.878;17.686;2023-03-23T06:55:11;19.53;;;3.87;;
23187;SDS011;11762;59.878;17.686;2023-03-23T06:57:38;22.60;;;3.50;;
23187;SDS011;11762;59.878;17.686;2023-03-23T07:00:06;36.23;;;5.03;;
23187;SDS011;11762;59.878;17.686;2023-03-23T07:02:38;29.63;;;4.27;;
23187;SDS011;11762;59.878;17.686;2023-03-23T07:05:05;15.70;;;3.63;;
23187;SDS011;11762;59.878;17.686;2023-03-23T07:07:34;17.73;;;3.70;;
23187;SDS011;11762;59.878;17.686;2023-03-23T07:10:01;25.90;;;4.10;;
23187;SDS011;11762;59.878;17.686;2023-03-23T07:12:28;22.07;;;3.83;;
23187;SDS011;11762;59.878;17.686;2023-03-23T07:14:55;22.40;;;3.87;;
23187;SDS011;11762;59.878;17.686;2023-03-23T07:17:22;25.67;;;3.50;;
23187;SDS011;11762;59.878;17.686;2023-03-23T07:19:51;21.60;;;3.80;;
23187;SDS011;11762;59.878;17.686;2023-03-23T07:22:18;27.87;;;5.47;;
23187;SDS011;11762;59.878;17.686;2023-03-23T07:24:45;22.50;;;3.73;;
23187;SDS011;11762;59.878;17.686;2023-03-23T07:27:12;18.17;;;3.97;;
23187;SDS011;11762;59.878;17.686;2023-03-23T07:29:40;28.07;;;4.30;;
23187;SDS011;11762;59.878;17.686;2023-03-23T07:32:08;20.57;;;3.73;;
23187;SDS011;11762;59.878;17.686;2023-03-23T07:34:37;27.77;;;4.20;;
23187;SDS011;11762;59.878;17.686;2023-03-23T07:37:05;22.80;;;3.47;;
23187;SDS011;11762;59.878;17.686;2023-03-23T07:39:32;29.90;;;4.20;;
23187;SDS011;11762;59.878;17.686;2023-03-23T07:42:00;23.03;;;4.03;;
23187;SDS011;11762;59.878;17.686;2023-03-23T07:44:27;30.50;;;4.17;;
23187;SDS011;11762;59.878;17.686;2023-03-23T07:46:54;20.23;;;4.43;;
23187;SDS011;11762;59.878;17.686;2023-03-23T07:49:21;25.90;;;3.63;;
23187;SDS011;11762;59.878;17.686;2023-03-23T07:51:48;19.07;;;4.10;;
23187;SDS011;11762;59.878;17.686;2023-03-23T07:54:16;23.63;;;4.17;;
23187;SDS011;11762;59.878;17.686;2023-03-23T07:56:44;21.60;;;3.57;;
23187;SDS011;11762;59.878;17.686;2023-03-23T07:59:11;22.00;;;4.40;;
23187;SDS011;11762;59.878;17.686;2023-03-23T08:01:38;20.47;;;4.37;;
23187;SDS011;11762;59.878;17.686;2023-03-23T08:04:06;20.40;;;4.30;;
23187;SDS011;11762;59.878;17.686;2023-03-23T08:06:33;20.67;;;3.60;;
23187;SDS011;11762;59.878;17.686;2023-03-23T08:09:01;25.57;;;3.73;;
23187;SDS011;11762;59.878;17.686;2023-03-23T08:11:33;21.93;;;3.57;;
23187;SDS011;11762;59.878;17.686;2023-03-23T08:14:00;27.40;;;4.67;;
23187;SDS011;11762;59.878;17.686;2023-03-23T08:16:28;28.87;;;3.90;;
23187;SDS011;11762;59.878;17.686;2023-03-23T08:18:55;25.13;;;3.40;;
23187;SDS011;11762;59.878;17.686;2023-03-23T08:21:23;21.27;;;4.33;;
23187;SDS011;11762;59.878;17.686;2023-03-23T08:23:51;29.80;;;4.37;;
23187;SDS011;11762;59.878;17.686;2023-03-23T08:26:19;27.83;;;4.00;;
23187;SDS011;11762;59.878;17.686;2023-03-23T08:28:48;20.37;;;4.43;;
23187;SDS011;11762;59.878;17.686;2023-03-23T08:31:15;22.30;;;4.10;;
23187;SDS011;11762;59.878;17.686;2023-03-23T08:33:43;16.77;;;3.23;;
23187;SDS011;11762;59.878;17.686;2023-03-23T08:36:11;22.73;;;4.37;;
23187;SDS011;11762;59.878;17.686;2023-03-23T08:38:38;18.63;;;3.87;;
23187;SDS011;11762;59.878;17.686;2023-03-23T08:41:05;20.87;;;3.87;;
23187;SDS011;11762;59.878;17.686;2023-03-23T08:43:34;17.60;;;4.43;;
23187;SDS011;11762;59.878;17.686;2023-03-23T08:46:03;19.60;;;4.03;;
23187;SDS011;11762;59.878;17.686;2023-03-23T08:48:34;21.43;;;3.40;;
23187;SDS011;11762;59.878;17.686;2023-03-23T08:51:01;21.97;;;3.50;;
23187;SDS011;11762;59.878;17.686;2023-03-23T08:53:29;18.30;;;3.40;;
23187;SDS011;11762;59.878;17.686;2023-03-23T08:55:56;25.67;;;4.83;;
23187;SDS011;11762;59.878;17.686;2023-03-23T08:58:29;24.87;;;4.53;;
23187;SDS011;11762;59.878;17.686;2023-03-23T09:00:57;21.23;;;3.80;;
23187;SDS011;11762;59.878;17.686;2023-03-23T09:03:26;22.60;;;4.13;;
23187;SDS011;11762;59.878;17.686;2023-03-23T09:05:53;24.80;;;4.47;;
23187;SDS011;11762;59.878;17.686;2023-03-23T09:08:24;21.20;;;4.47;;
23187;SDS011;11762;59.878;17.686;2023-03-23T09:10:52;27.17;;;3.97;;
23187;SDS011;11762;59.878;17.686;2023-03-23T09:13:19;27.60;;;3.83;;
23187;SDS011;11762;59.878;17.686;2023-03-23T09:15:46;21.47;;;3.73;;
23187;SDS011;11762;59.878;17.686;2023-03-23T09:18:15;17.40;;;3.33;;
23187;SDS011;11762;59.878;17.686;2023-03-23T09:20:44;26.83;;;4.27;;
23187;SDS011;11762;59.878;17.686;2023-03-23T09:23:13;24.03;;;4.23;;
23187;SDS011;11762;59.878;17.686;2023-03-23T09:25:41;21.47;;;4.57;;
23187;SDS011;11762;59.878;17.686;2023-03-23T09:28:09;22.23;;;3.60;;
23187;SDS011;11762;59.878;17.686;2023-03-23T09:30:37;15.53;;;3.67;;
23187;SDS011;11762;59.878;17.686;2023-03-23T09:33:06;23.07;;;4.07;;
23187;SDS011;11762;59.878;17.686;2023-03-23T09:35:34;22.07;;;3.70;;
23187;SDS011;11762;59.878;17.686;2023-03-23T09:38:05;25.87;;;3.60;;
23187;SDS011;11762;59.878;17.686;2023-03-23T09:40:33;23.30;;;4.00;;
23187;SDS011;11762;59.878;17.686;2023-03-23T09:46:20;18.50;;;3.47;;
23187;SDS011;11762;59.878;17.686;2023-03-23T09:49:09;24.67;;;3.77;;
23187;SDS011;11762;59.878;17.686;2023-03-23T09:51:41;19.23;;;4.70;;
23187;SDS011;11762;59.878;17.686;2023-03-23T09:54:14;21.63;;;3.17;;
23187;SDS011;11762;59.878;17.686;2023-03-23T09:56:46;21.67;;;3.70;;
23187;SDS011;11762;59.878;17.686;2023-03-23T09:59:18;26.40;;;4.20;;
23187;SDS011;11762;59.878;17.686;2023-03-23T10:01:50;27.03;;;4.43;;
23187;SDS011;11762;59.878;17.686;2023-03-23T10:04:24;22.90;;;4.13;;
23187;SDS011;11762;59.878;17.686;2023-03-23T10:06:57;20.13;;;3.70;;
23187;SDS011;11762;59.878;17.686;2023-03-23T10:09:28;18.13;;;3.43;;
23187;SDS011;11762;59.878;17.686;2023-03-23T10:11:58;22.17;;;4.17;;
23187;SDS011;11762;59.878;17.686;2023-03-23T10:14:42;17.80;;;2.77;;
23187;SDS011;11762;59.878;17.686;2023-03-23T10:17:17;16.17;;;3.20;;
23187;SDS011;11762;59.878;17.686;2023-03-23T10:19:50;13.63;;;3.77;;
23187;SDS011;11762;59.878;17.686;2023-03-23T10:22:26;24.47;;;3.70;;
23187;SDS011;11762;59.878;17.686;2023-03-23T10:24:59;15.63;;;3.60;;
23187;SDS011;11762;59.878;17.686;2023-03-23T10:27:36;18.43;;;3.17;;
23187;SDS011;11762;59.878;17.686;2023-03-23T10:30:13;19.00;;;3.47;;
23187;SDS011;11762;59.878;17.686;2023-03-23T10:32:47;14.67;;;3.33;;
23187;SDS011;11762;59.878;17.686;2023-03-23T10:35:19;16.80;;;2.90;;
23187;SDS011;11762;59.878;17.686;2023-03-23T10:37:52;15.63;;;3.10;;
23187;SDS011;11762;59.878;17.686;2023-03-23T10:40:29;12.83;;;3.50;;
23187;SDS011;11762;59.878;17.686;2023-03-23T10:43:00;18.20;;;2.80;;
23187;SDS011;11762;59.878;17.686;2023-03-23T10:45:28;11.13;;;2.70;;
23187;SDS011;11762;59.878;17.686;2023-03-23T10:47:58;19.47;;;3.57;;
23187;SDS011;11762;59.878;17.686;2023-03-23T10:50:29;18.47;;;4.17;;
23187;SDS011;11762;59.878;17.686;2023-03-23T10:52:58;16.27;;;2.97;;
23187;SDS011;11762;59.878;17.686;2023-03-23T10:55:36;14.87;;;3.27;;
23187;SDS011;11762;59.878;17.686;2023-03-23T10:58:05;26.30;;;3.83;;
23187;SDS011;11762;59.878;17.686;2023-03-23T11:00:39;15.43;;;3.30;;
23187;SDS011;11762;59.878;17.686;2023-03-23T11:03:21;15.37;;;2.47;;
23187;SDS011;11762;59.878;17.686;2023-03-23T11:05:55;22.20;;;3.53;;
23187;SDS011;11762;59.878;17.686;2023-03-23T11:08:24;31.77;;;3.30;;
23187;SDS011;11762;59.878;17.686;2023-03-23T11:10:56;17.93;;;2.80;;
23187;SDS011;11762;59.878;17.686;2023-03-23T11:13:27;15.13;;;3.37;;
23187;SDS011;11762;59.878;17.686;2023-03-23T11:15:57;17.10;;;2.87;;
23187;SDS011;11762;59.878;17.686;2023-03-23T11:18:26;23.70;;;3.53;;
23187;SDS011;11762;59.878;17.686;2023-03-23T11:21:02;14.73;;;2.70;;
23187;SDS011;11762;59.878;17.686;2023-03-23T11:23:32;17.77;;;3.10;;
23187;SDS011;11762;59.878;17.686;2023-03-23T11:26:09;10.33;;;2.33;;
23187;SDS011;11762;59.878;17.686;2023-03-23T11:28:42;26.83;;;3.63;;
23187;SDS011;11762;59.878;17.686;2023-03-23T11:31:12;16.77;;;2.83;;
23187;SDS011;11762;59.878;17.686;2023-03-23T11:33:45;14.50;;;3.33;;
23187;SDS011;11762;59.878;17.686;2023-03-23T11:36:17;20.60;;;3.43;;
23187;SDS011;11762;59.878;17.686;2023-03-23T11:38:44;18.27;;;3.57;;
23187;SDS011;11762;59.878;17.686;2023-03-23T11:41:18;13.33;;;3.03;;
23187;SDS011;11762;59.878;17.686;2023-03-23T11:43:46;17.33;;;3.47;;
23187;SDS011;11762;59.878;17.686;2023-03-23T11:46:16;11.50;;;2.47;;
23187;SDS011;11762;59.878;17.686;2023-03-23T11:48:53;15.40;;;2.47;;
23187;SDS011;11762;59.878;17.686;2023-03-23T11:51:26;21.03;;;2.77;;
23187;SDS011;11762;59.878;17.686;2023-03-23T11:53:58;15.70;;;2.97;;
23187;SDS011;11762;59.878;17.686;2023-03-23T11:56:30;20.50;;;2.77;;
23187;SDS011;11762;59.878;17.686;2023-03-23T11:59:01;16.50;;;2.50;;
23187;SDS011;11762;59.878;17.686;2023-03-23T12:01:38;15.90;;;2.87;;
23187;SDS011;11762;59.878;17.686;2023-03-23T12:04:26;13.13;;;2.67;;
23187;SDS011;11762;59.878;17.686;2023-03-23T12:07:09;14.50;;;2.33;;
23187;SDS011;11762;59.878;17.686;2023-03-23T12:09:48;12.27;;;2.83;;
23187;SDS011;11762;59.878;17.686;2023-03-23T12:12:23;20.03;;;2.97;;
23187;SDS011;11762;59.878;17.686;2023-03-23T12:15:02;8.93;;;2.07;;
23187;SDS011;11762;59.878;17.686;2023-03-23T12:17:39;13.87;;;2.77;;
23187;SDS011;11762;59.878;17.686;2023-03-23T12:20:17;19.30;;;2.83;;
23187;SDS011;11762;59.878;17.686;2023-03-23T12:22:55;14.00;;;3.40;;
23187;SDS011;11762;59.878;17.686;2023-03-23T12:25:38;13.07;;;2.53;;
23187;SDS011;11762;59.878;17.686;2023-03-23T12:28:29;15.43;;;2.80;;
23187;SDS011;11762;59.878;17.686;2023-03-23T12:31:10;17.87;;;2.90;;
23187;SDS011;11762;59.878;17.686;2023-03-23T12:33:48;24.43;;;2.83;;
23187;SDS011;11762;59.878;17.686;2023-03-23T12:36:27;14.37;;;2.40;;
23187;SDS011;11762;59.878;17.686;2023-03-23T12:39:11;16.50;;;3.00;;
23187;SDS011;11762;59.878;17.686;2023-03-23T12:41:56;17.37;;;2.67;;
23187;SDS011;11762;59.878;17.686;2023-03-23T12:44:32;13.63;;;2.80;;
23187;SDS011;11762;59.878;17.686;2023-03-23T12:47:09;16.47;;;2.33;;
23187;SDS011;11762;59.878;17.686;2023-03-23T12:49:46;17.80;;;2.33;;
23187;SDS011;11762;59.878;17.686;2023-03-23T12:52:18;11.60;;;2.23;;
23187;SDS011;11762;59.878;17.686;2023-03-23T12:54:50;16.43;;;2.57;;
23187;SDS011;11762;59.878;17.686;2023-03-23T12:57:24;11.20;;;2.10;;
23187;SDS011;11762;59.878;17.686;2023-03-23T13:00:02;15.93;;;2.90;;
23187;SDS011;11762;59.878;17.686;2023-03-23T13:02:39;17.50;;;2.57;;
23187;SDS011;11762;59.878;17.686;2023-03-23T13:05:10;14.47;;;2.47;;
23187;SDS011;11762;59.878;17.686;2023-03-23T13:07:55;19.23;;;3.10;;
23187;SDS011;11762;59.878;17.686;2023-03-23T13:10:34;16.63;;;2.33;;
23187;SDS011;11762;59.878;17.686;2023-03-23T13:13:07;21.00;;;2.10;;
23187;SDS011;11762;59.878;17.686;2023-03-23T13:15:43;11.83;;;2.40;;
23187;SDS011;11762;59.878;17.686;2023-03-23T13:18:18;12.60;;;2.17;;
23187;SDS011;11762;59.878;17.686;2023-03-23T13:20:54;11.17;;;2.53;;
23187;SDS011;11762;59.878;17.686;2023-03-23T13:23:28;19.90;;;2.93;;
23187;SDS011;11762;59.878;17.686;2023-03-23T13:25:59;6.87;;;2.07;;
23187;SDS011;11762;59.878;17.686;2023-03-23T13:28:29;8.50;;;2.10;;
23187;SDS011;11762;59.878;17.686;2023-03-23T13:31:01;13.93;;;2.73;;
23187;SDS011;11762;59.878;17.686;2023-03-23T13:33:30;17.70;;;2.87;;
23187;SDS011;11762;59.878;17.686;2023-03-23T13:36:08;17.27;;;2.57;;
23187;SDS011;11762;59.878;17.686;2023-03-23T13:38:37;17.50;;;2.40;;
23187;SDS011;11762;59.878;17.686;2023-03-23T13:41:11;14.50;;;3.03;;
23187;SDS011;11762;59.878;17.686;2023-03-23T13:43:41;8.33;;;2.03;;
23187;SDS011;11762;59.878;17.686;2023-03-23T13:46:28;13.50;;;2.10;;
23187;SDS011;11762;59.878;17.686;2023-03-23T13:49:03;14.23;;;3.47;;
23187;SDS011;11762;59.878;17.686;2023-03-23T13:51:56;19.57;;;3.13;;
23187;SDS011;11762;59.878;17.686;2023-03-23T13:54:39;22.50;;;2.90;;
23187;SDS011;11762;59.878;17.686;2023-03-23T13:57:23;12.10;;;2.53;;
23187;SDS011;11762;59.878;17.686;2023-03-23T14:00:09;9.40;;;2.37;;
23187;SDS011;11762;59.878;17.686;2023-03-23T14:02:42;12.63;;;2.40;;
23187;SDS011;11762;59.878;17.686;2023-03-23T14:05:23;24.77;;;3.00;;
23187;SDS011;11762;59.878;17.686;2023-03-23T14:07:59;17.17;;;2.37;;
23187;SDS011;11762;59.878;17.686;2023-03-23T14:10:32;13.23;;;3.10;;
23187;SDS011;11762;59.878;17.686;2023-03-23T14:13:02;15.17;;;2.60;;
23187;SDS011;11762;59.878;17.686;2023-03-23T14:15:36;9.13;;;2.37;;
23187;SDS011;11762;59.878;17.686;2023-03-23T14:18:12;11.47;;;2.40;;
23187;SDS011;11762;59.878;17.686;2023-03-23T14:20:41;15.50;;;2.87;;
23187;SDS011;11762;59.878;17.686;2023-03-23T14:23:15;16.70;;;2.30;;
23187;SDS011;11762;59.878;17.686;2023-03-23T14:25:43;20.03;;;2.47;;
23187;SDS011;11762;59.878;17.686;2023-03-23T14:28:17;14.63;;;2.43;;
23187;SDS011;11762;59.878;17.686;2023-03-23T14:30:47;13.53;;;2.77;;
23187;SDS011;11762;59.878;17.686;2023-03-23T14:33:20;10.30;;;2.10;;
23187;SDS011;11762;59.878;17.686;2023-03-23T14:35:47;20.77;;;2.93;;
23187;SDS011;11762;59.878;17.686;2023-03-23T14:38:16;15.37;;;2.27;;
23187;SDS011;11762;59.878;17.686;2023-03-23T14:40:46;16.37;;;2.37;;
23187;SDS011;11762;59.878;17.686;2023-03-23T14:43:16;18.03;;;2.97;;
23187;SDS011;11762;59.878;17.686;2023-03-23T14:45:51;24.80;;;3.17;;
23187;SDS011;11762;59.878;17.686;2023-03-23T14:48:19;14.63;;;2.60;;
23187;SDS011;11762;59.878;17.686;2023-03-23T14:50:49;13.70;;;2.23;;
23187;SDS011;11762;59.878;17.686;2023-03-23T14:53:18;15.23;;;1.90;;
23187;SDS011;11762;59.878;17.686;2023-03-23T14:55:49;13.27;;;3.03;;
23187;SDS011;11762;59.878;17.686;2023-03-23T14:58:18;12.60;;;2.57;;
23187;SDS011;11762;59.878;17.686;2023-03-23T15:00:47;17.30;;;2.70;;
23187;SDS011;11762;59.878;17.686;2023-03-23T15:03:20;11.43;;;2.43;;
23187;SDS011;11762;59.878;17.686;2023-03-23T15:05:50;14.57;;;2.37;;
23187;SDS011;11762;59.878;17.686;2023-03-23T15:08:22;15.80;;;3.10;;
23187;SDS011;11762;59.878;17.686;2023-03-23T15:10:55;11.83;;;2.37;;
23187;SDS011;11762;59.878;17.686;2023-03-23T15:13:31;15.97;;;2.53;;
23187;SDS011;11762;59.878;17.686;2023-03-23T15:16:06;17.90;;;2.97;;
23187;SDS011;11762;59.878;17.686;2023-03-23T15:18:40;23.40;;;4.33;;
23187;SDS011;11762;59.878;17.686;2023-03-23T15:21:19;16.93;;;2.63;;
23187;SDS011;11762;59.878;17.686;2023-03-23T15:23:49;23.20;;;2.27;;
23187;SDS011;11762;59.878;17.686;2023-03-23T15:26:26;23.03;;;3.00;;
23187;SDS011;11762;59.878;17.686;2023-03-23T15:29:03;13.47;;;2.37;;
23187;SDS011;11762;59.878;17.686;2023-03-23T15:31:39;13.87;;;2.00;;
23187;SDS011;11762;59.878;17.686;2023-03-23T15:34:12;14.07;;;2.40;;
23187;SDS011;11762;59.878;17.686;2023-03-23T15:36:50;17.97;;;2.47;;
23187;SDS011;11762;59.878;17.686;2023-03-23T15:39:22;15.83;;;2.63;;
23187;SDS011;11762;59.878;17.686;2023-03-23T15:41:50;12.10;;;2.47;;
23187;SDS011;11762;59.878;17.686;2023-03-23T15:44:28;20.97;;;2.83;;
23187;SDS011;11762;59.878;17.686;2023-03-23T15:49:58;16.27;;;2.77;;
23187;SDS011;11762;59.878;17.686;2023-03-23T15:52:28;10.37;;;2.33;;
23187;SDS011;11762;59.878;17.686;2023-03-23T15:54:55;11.90;;;1.93;;
23187;SDS011;11762;59.878;17.686;2023-03-23T15:57:22;19.63;;;2.80;;
23187;SDS011;11762;59.878;17.686;2023-03-23T15:59:49;12.57;;;2.17;;
23187;SDS011;11762;59.878;17.686;2023-03-23T16:02:18;17.67;;;2.60;;
23187;SDS011;11762;59.878;17.686;2023-03-23T16:04:48;27.87;;;2.50;;
23187;SDS011;11762;59.878;17.686;2023-03-23T16:07:17;17.57;;;3.17;;
23187;SDS011;11762;59.878;17.686;2023-03-23T16:09:47;20.00;;;3.23;;
23187;SDS011;11762;59.878;17.686;2023-03-23T16:12:14;19.63;;;3.20;;
23187;SDS011;11762;59.878;17.686;2023-03-23T16:14:41;21.13;;;2.77;;
23187;SDS011;11762;59.878;17.686;2023-03-23T16:17:09;24.87;;;2.67;;
23187;SDS011;11762;59.878;17.686;2023-03-23T16:19:39;19.77;;;2.80;;
23187;SDS011;11762;59.878;17.686;2023-03-23T16:22:08;11.27;;;2.50;;
23187;SDS011;11762;59.878;17.686;2023-03-23T16:24:35;25.57;;;3.33;;
23187;SDS011;11762;59.878;17.686;2023-03-23T16:27:03;20.50;;;2.23;;
23187;SDS011;11762;59.878;17.686;2023-03-23T16:29:30;23.57;;;3.33;;
23187;SDS011;11762;59.878;17.686;2023-03-23T16:31:57;38.27;;;3.73;;
23187;SDS011;11762;59.878;17.686;2023-03-23T16:34:24;21.33;;;3.70;;
23187;SDS011;11762;59.878;17.686;2023-03-23T16:36:53;17.57;;;2.83;;
23187;SDS011;11762;59.878;17.686;2023-03-23T16:39:21;26.60;;;3.17;;
23187;SDS011;11762;59.878;17.686;2023-03-23T16:41:48;25.23;;;3.40;;
23187;SDS011;11762;59.878;17.686;2023-03-23T16:44:16;28.17;;;3.50;;
23187;SDS011;11762;59.878;17.686;2023-03-23T16:46:43;26.30;;;3.60;;
23187;SDS011;11762;59.878;17.686;2023-03-23T16:49:10;11.93;;;3.13;;
23187;SDS011;11762;59.878;17.686;2023-03-23T16:51:37;20.97;;;3.30;;
23187;SDS011;11762;59.878;17.686;2023-03-23T16:54:04;21.50;;;3.63;;
23187;SDS011;11762;59.878;17.686;2023-03-23T16:56:33;28.70;;;3.53;;
23187;SDS011;11762;59.878;17.686;2023-03-23T16:59:00;14.80;;;2.70;;
23187;SDS011;11762;59.878;17.686;2023-03-23T17:01:27;22.93;;;3.33;;
23187;SDS011;11762;59.878;17.686;2023-03-23T17:03:54;27.57;;;3.47;;
23187;SDS011;11762;59.878;17.686;2023-03-23T17:06:21;22.00;;;2.90;;
23187;SDS011;11762;59.878;17.686;2023-03-23T17:08:49;24.80;;;2.83;;
23187;SDS011;11762;59.878;17.686;2023-03-23T17:11:16;22.17;;;3.63;;
23187;SDS011;11762;59.878;17.686;2023-03-23T17:13:44;21.03;;;2.97;;
23187;SDS011;11762;59.878;17.686;2023-03-23T17:16:11;26.03;;;3.63;;
23187;SDS011;11762;59.878;17.686;2023-03-23T17:18:38;20.20;;;3.70;;
23187;SDS011;11762;59.878;17.686;2023-03-23T17:21:05;18.53;;;2.93;;
23187;SDS011;11762;59.878;17.686;2023-03-23T17:23:32;19.93;;;3.93;;